Time;durP1;ratioP1;P1;durP2;ratioP2;P2;SDS_P1;SDS_P2;PMS_P1;PMS_P2;Temp;Humidity;BMP_temperature;BMP_pressure;BME280_temperature;BME280_humidity;BME280_pressure;Samples;Min_cycle;Max_cycle;Signal;HPM_P1;HPM_P2
2022/12/09 00:02:19;;;;;;;2.47;2.20;;;14.00;61.70;;;;;;4988657;28;20128;-17
2022/12/09 00:04:45;;;;;;;2.00;1.90;;;14.00;61.60;;;;;;4991080;28;20042;-22
2022/12/09 00:07:10;;;;;;;2.13;2.03;;;14.00;61.80;;;;;;4990576;28;20050;-17
2022/12/09 00:09:36;;;;;;;1.90;1.80;;;14.00;61.70;;;;;;4990242;28;20485;-17
2022/12/09 00:12:01;;;;;;;2.20;2.10;;;14.00;61.80;;;;;;4990792;28;20043;-17
2022/12/09 00:14:27;;;;;;;2.08;1.98;;;14.00;61.90;;;;;;4987769;28;20035;-17
2022/12/09 00:16:54;;;;;;;1.92;1.83;;;13.90;61.80;;;;;;4990296;28;20039;-17
2022/12/09 00:19:19;;;;;;;2.00;1.90;;;13.90;61.90;;;;;;4990674;28;20522;-17
2022/12/09 00:21:45;;;;;;;2.13;2.03;;;13.90;61.90;;;;;;4986484;28;20054;-17
2022/12/09 00:24:11;;;;;;;2.38;2.28;;;13.90;62.10;;;;;;4991203;28;20117;-17
2022/12/09 00:26:37;;;;;;;2.00;1.90;;;13.90;62.00;;;;;;4991133;28;20035;-19
2022/12/09 00:29:03;;;;;;;2.10;2.00;;;14.00;61.90;;;;;;4988116;28;20069;-17
2022/12/09 00:31:31;;;;;;;2.00;1.90;;;13.90;62.00;;;;;;4990909;28;20126;-18
2022/12/09 00:33:58;;;;;;;1.90;1.80;;;13.90;62.00;;;;;;4988946;28;20041;-17
2022/12/09 00:36:23;;;;;;;1.95;1.85;;;13.90;61.90;;;;;;4982508;28;20183;-17
2022/12/09 00:38:49;;;;;;;1.80;1.70;;;13.90;62.00;;;;;;4987721;28;20411;-17
2022/12/09 00:41:15;;;;;;;1.90;1.80;;;13.90;62.10;;;;;;4990333;28;20050;-17
2022/12/09 00:43:41;;;;;;;1.73;1.63;;;13.90;62.10;;;;;;4990645;28;20173;-17
2022/12/09 00:46:06;;;;;;;2.00;1.90;;;13.90;61.90;;;;;;4984819;28;20062;-17
2022/12/09 00:48:37;;;;;;;1.58;1.48;;;13.90;62.20;;;;;;4989729;28;20046;-17
2022/12/09 00:51:03;;;;;;;1.60;1.50;;;13.90;62.30;;;;;;4987567;28;20057;-30
2022/12/09 00:53:29;;;;;;;1.73;1.63;;;13.80;62.20;;;;;;4988493;28;20460;-34
2022/12/09 00:55:54;;;;;;;1.63;1.48;;;13.90;62.30;;;;;;4989032;28;20053;-32
2022/12/09 00:58:20;;;;;;;1.63;1.52;;;13.80;63.00;;;;;;4990162;28;20542;-31
2022/12/09 01:00:46;;;;;;;1.90;1.80;;;13.90;62.20;;;;;;4989721;28;22124;-33
2022/12/09 01:03:15;;;;;;;1.85;1.75;;;13.90;62.20;;;;;;4990783;28;20041;-33
2022/12/09 01:05:41;;;;;;;1.40;1.40;;;13.90;62.00;;;;;;4988424;28;20041;-32
2022/12/09 01:08:06;;;;;;;1.35;1.33;;;13.80;62.10;;;;;;4987252;28;20058;-31
2022/12/09 01:10:33;;;;;;;1.73;1.63;;;13.80;62.20;;;;;;4985584;28;20049;-32
2022/12/09 01:12:58;;;;;;;1.50;1.50;;;13.80;62.20;;;;;;4989045;28;20041;-31
2022/12/09 01:15:24;;;;;;;1.70;1.60;;;13.80;62.20;;;;;;4990107;28;20042;-33
2022/12/09 01:17:50;;;;;;;2.00;1.90;;;13.80;62.20;;;;;;4983333;28;20430;-31
2022/12/09 01:20:15;;;;;;;1.50;1.40;;;13.80;62.10;;;;;;4987178;28;20479;-37
2022/12/09 01:22:41;;;;;;;1.58;1.52;;;13.90;62.00;;;;;;4989252;28;20046;-31
2022/12/09 01:25:07;;;;;;;1.60;1.50;;;13.80;62.00;;;;;;4987481;28;20054;-30
2022/12/09 01:27:32;;;;;;;1.80;1.70;;;13.80;62.20;;;;;;4987645;28;20042;-34
2022/12/09 01:29:58;;;;;;;1.80;1.70;;;13.80;62.30;;;;;;4988940;28;20133;-30
2022/12/09 01:32:24;;;;;;;1.52;1.50;;;13.70;62.10;;;;;;4989893;28;20679;-31
2022/12/09 01:34:49;;;;;;;1.58;1.48;;;13.80;62.20;;;;;;4985509;28;20050;-33
2022/12/09 01:37:15;;;;;;;1.63;1.52;;;13.80;62.20;;;;;;4989737;28;20073;-31
2022/12/09 01:39:40;;;;;;;1.60;1.50;;;13.80;62.20;;;;;;4989774;28;20050;-31
2022/12/09 01:42:08;;;;;;;1.60;1.50;;;13.80;62.30;;;;;;4988665;28;20062;-33
2022/12/09 01:44:34;;;;;;;1.33;1.27;;;13.80;62.20;;;;;;4989680;28;20511;-34
2022/12/09 01:47:00;;;;;;;1.42;1.42;;;13.70;62.00;;;;;;4986376;28;20043;-34
2022/12/09 01:49:27;;;;;;;1.67;1.58;;;13.80;62.10;;;;;;4988365;28;20042;-33
2022/12/09 01:52:10;;;;;;;1.27;1.27;;;13.80;62.20;;;;;;4985364;28;20125;-30
2022/12/09 01:54:36;;;;;;;1.00;1.00;;;13.80;62.20;;;;;;4982501;28;20046;-33
2022/12/09 01:57:02;;;;;;;1.40;1.30;;;13.80;62.20;;;;;;4987765;28;20479;-33
2022/12/09 01:59:27;;;;;;;1.90;1.80;;;13.80;62.30;;;;;;4987431;28;20495;-30
2022/12/09 02:01:55;;;;;;;1.58;1.48;;;13.80;62.10;;;;;;4984018;28;20064;-30
2022/12/09 02:04:21;;;;;;;1.30;1.30;;;13.80;62.00;;;;;;4986688;28;20052;-35
2022/12/09 02:06:46;;;;;;;1.30;1.20;;;13.70;62.10;;;;;;4986665;28;20050;-32
2022/12/09 02:09:12;;;;;;;1.25;1.17;;;13.80;62.00;;;;;;4987452;28;20052;-33
2022/12/09 02:12:00;;;;;;;1.50;1.40;;;13.70;62.00;;;;;;4986354;28;20050;-31
2022/12/09 02:14:40;;;;;;;1.88;1.77;;;13.70;62.10;;;;;;4985775;28;20046;-30
2022/12/09 02:17:24;;;;;;;1.58;1.48;;;13.80;62.00;;;;;;4983243;28;20046;-30
2022/12/09 02:20:00;;;;;;;1.70;1.60;;;13.70;62.00;;;;;;4986384;28;20046;-30
2022/12/09 02:22:55;;;;;;;1.60;1.50;;;13.80;62.00;;;;;;4987404;28;20120;-39
2022/12/09 02:25:35;;;;;;;1.20;1.20;;;13.80;62.00;;;;;;4969571;28;20411;-32
2022/12/09 02:28:18;;;;;;;1.20;1.20;;;13.80;62.00;;;;;;4984766;28;20286;-34
2022/12/09 02:31:21;;;;;;;1.13;1.13;;;13.80;61.80;;;;;;4986219;28;20081;-32
2022/12/09 02:34:11;;;;;;;1.55;1.45;;;13.80;61.80;;;;;;4988059;28;20388;-37
2022/12/09 02:37:03;;;;;;;1.00;1.00;;;13.80;61.80;;;;;;4984304;28;20042;-31
2022/12/09 02:39:38;;;;;;;1.40;1.30;;;13.80;61.80;;;;;;4986690;28;20067;-30
2022/12/09 02:42:04;;;;;;;1.10;1.10;;;13.80;61.90;;;;;;4987263;28;20419;-30
2022/12/09 02:44:29;;;;;;;1.10;1.10;;;13.80;61.80;;;;;;4986358;28;20519;-30
2022/12/09 02:46:55;;;;;;;1.40;1.30;;;13.80;61.80;;;;;;4983318;28;20047;-31
2022/12/09 02:49:20;;;;;;;1.33;1.23;;;13.80;61.70;;;;;;4988792;28;20046;-30
2022/12/09 02:51:46;;;;;;;1.35;1.30;;;13.80;62.60;;;;;;4987950;28;20121;-30
2022/12/09 02:54:14;;;;;;;1.33;1.33;;;13.80;61.90;;;;;;4986732;28;20046;-32
2022/12/09 02:56:40;;;;;;;1.10;1.10;;;13.80;61.70;;;;;;4986822;28;20049;-31
2022/12/09 02:59:06;;;;;;;1.00;1.00;;;13.80;61.80;;;;;;4983192;28;20054;-32
2022/12/09 03:01:36;;;;;;;1.02;1.02;;;13.80;61.80;;;;;;4988091;28;20548;-33
2022/12/09 03:04:01;;;;;;;1.40;1.30;;;13.70;62.60;;;;;;4984060;28;20042;-31
2022/12/09 03:06:29;;;;;;;1.00;1.00;;;13.80;61.70;;;;;;4982045;28;20042;-32
2022/12/09 03:09:02;;;;;;;0.95;0.95;;;13.80;61.70;;;;;;4986313;28;20038;-31
2022/12/09 03:11:28;;;;;;;1.38;1.10;;;13.70;61.80;;;;;;4985889;28;20034;-31
2022/12/09 03:14:04;;;;;;;1.88;0.98;;;13.80;61.70;;;;;;4995883;28;20058;-30
2022/12/09 03:16:53;;;;;;;1.15;1.05;;;13.70;61.70;;;;;;4985189;28;20043;-34
2022/12/09 03:19:24;;;;;;;1.38;1.30;;;13.70;61.70;;;;;;4980925;28;20046;-34
2022/12/09 03:21:51;;;;;;;1.00;1.00;;;13.70;61.70;;;;;;4979461;28;20042;-35
2022/12/09 03:24:31;;;;;;;0.95;0.95;;;13.70;61.70;;;;;;4982915;28;20420;-31
2022/12/09 03:26:57;;;;;;;1.00;1.00;;;13.80;61.50;;;;;;4984042;28;20046;-30
2022/12/09 03:29:23;;;;;;;0.90;0.90;;;13.80;61.60;;;;;;4984984;28;20420;-33
2022/12/09 03:31:50;;;;;;;1.00;1.00;;;13.70;61.60;;;;;;4986045;28;20554;-33
2022/12/09 03:34:17;;;;;;;0.85;0.85;;;13.70;61.70;;;;;;4986757;28;20093;-30
2022/12/09 03:36:43;;;;;;;1.20;1.20;;;13.70;61.80;;;;;;4983301;28;20046;-32
2022/12/09 03:39:11;;;;;;;1.00;1.00;;;13.70;61.70;;;;;;4983779;28;20417;-31
2022/12/09 03:41:37;;;;;;;0.85;0.85;;;13.70;61.80;;;;;;4986403;28;20053;-30
2022/12/09 03:44:07;;;;;;;1.02;1.02;;;13.70;61.70;;;;;;4982244;28;20047;-31
2022/12/09 03:46:33;;;;;;;1.35;1.17;;;13.80;61.50;;;;;;4964025;28;20485;-33
2022/12/09 03:48:59;;;;;;;1.10;1.10;;;13.70;61.70;;;;;;5011154;28;20042;-31
2022/12/09 03:51:35;;;;;;;1.20;1.20;;;13.70;61.80;;;;;;4985489;28;20077;-33
2022/12/09 03:54:15;;;;;;;1.00;1.00;;;13.80;61.70;;;;;;4979700;28;20051;-31
2022/12/09 03:56:43;;;;;;;2.00;1.10;;;13.80;61.60;;;;;;4984612;28;20042;-31
2022/12/09 03:59:11;;;;;;;0.88;0.88;;;13.80;61.60;;;;;;4985835;28;20070;-32
2022/12/09 04:01:37;;;;;;;1.23;1.20;;;13.80;61.50;;;;;;4983303;28;20051;-34
2022/12/09 04:04:03;;;;;;;0.80;0.80;;;13.80;61.60;;;;;;5009989;28;20066;-30
2022/12/09 04:06:29;;;;;;;1.05;1.05;;;13.70;61.70;;;;;;4987519;28;20054;-30
2022/12/09 04:08:54;;;;;;;0.90;0.90;;;13.70;61.50;;;;;;4986050;28;20041;-22
2022/12/09 04:11:20;;;;;;;1.08;1.08;;;13.70;61.60;;;;;;4987606;28;20117;-34
2022/12/09 04:13:46;;;;;;;0.90;0.90;;;13.70;61.70;;;;;;4987364;28;20274;-34
2022/12/09 04:16:11;;;;;;;0.95;0.95;;;13.70;62.70;;;;;;4984576;28;20062;-34
2022/12/09 04:18:37;;;;;;;0.90;0.90;;;13.70;61.70;;;;;;4987172;28;21347;-30
2022/12/09 04:21:07;;;;;;;1.02;1.02;;;13.70;61.60;;;;;;4986500;28;20042;-31
2022/12/09 04:23:32;;;;;;;1.30;1.27;;;13.70;61.60;;;;;;4987429;28;20411;-32
2022/12/09 04:25:58;;;;;;;1.05;1.05;;;13.70;61.40;;;;;;4987913;28;20038;-30
2022/12/09 04:28:23;;;;;;;1.02;1.02;;;13.70;61.60;;;;;;4988546;28;20101;-31
2022/12/09 04:30:49;;;;;;;1.02;1.02;;;13.70;61.60;;;;;;4989318;28;20054;-34
2022/12/09 04:33:15;;;;;;;1.00;1.00;;;13.70;61.60;;;;;;4991021;28;20081;-32
2022/12/09 04:35:40;;;;;;;1.00;1.00;;;13.70;61.50;;;;;;4990529;28;20057;-31
2022/12/09 04:38:06;;;;;;;0.93;0.93;;;13.70;61.60;;;;;;4990316;28;20066;-31
2022/12/09 04:40:31;;;;;;;1.27;1.27;;;13.70;61.50;;;;;;4990982;28;20042;-30
2022/12/09 04:42:57;;;;;;;1.15;1.15;;;13.70;61.40;;;;;;4986730;28;20468;-34
2022/12/09 04:45:23;;;;;;;1.00;1.00;;;13.70;61.40;;;;;;4989986;28;20038;-33
2022/12/09 04:47:48;;;;;;;0.95;0.95;;;13.70;61.30;;;;;;4990905;28;20173;-32
2022/12/09 04:50:14;;;;;;;0.98;0.98;;;13.70;61.50;;;;;;4988973;28;20054;-32
2022/12/09 04:52:40;;;;;;;1.08;1.08;;;13.70;61.50;;;;;;4990653;28;20471;-31
2022/12/09 04:55:06;;;;;;;1.02;1.02;;;13.70;61.50;;;;;;4989902;28;20129;-30
2022/12/09 04:57:31;;;;;;;1.17;1.17;;;13.70;61.50;;;;;;4988204;28;20047;-33
2022/12/09 04:59:57;;;;;;;1.08;1.08;;;13.70;61.70;;;;;;4989672;28;20038;-32
2022/12/09 05:02:23;;;;;;;1.35;1.35;;;13.70;61.60;;;;;;4990106;28;20054;-33
2022/12/09 05:04:48;;;;;;;1.35;1.27;;;13.70;61.50;;;;;;4988893;28;20030;-34
2022/12/09 05:07:14;;;;;;;1.33;1.30;;;13.70;61.50;;;;;;4986949;28;20077;-37
2022/12/09 05:09:40;;;;;;;1.17;1.17;;;13.70;61.50;;;;;;4989320;28;20062;-31
2022/12/09 05:12:05;;;;;;;1.05;1.05;;;13.70;61.50;;;;;;4987000;28;20042;-32
2022/12/09 05:14:31;;;;;;;1.00;1.00;;;13.60;61.70;;;;;;4990229;28;20495;-30
2022/12/09 05:16:57;;;;;;;1.50;1.40;;;13.60;61.60;;;;;;4990006;28;20065;-30
2022/12/09 05:19:22;;;;;;;0.95;0.95;;;13.70;61.60;;;;;;4989076;28;20495;-30
2022/12/09 05:21:48;;;;;;;1.30;1.30;;;13.70;61.60;;;;;;4990289;28;20066;-31
2022/12/09 05:24:13;;;;;;;1.02;1.02;;;13.60;61.50;;;;;;4986743;28;20306;-32
2022/12/09 05:26:39;;;;;;;1.30;1.17;;;13.60;61.80;;;;;;4989734;28;20108;-31
2022/12/09 05:29:05;;;;;;;0.90;0.90;;;13.60;61.70;;;;;;4987009;28;20035;-32
2022/12/09 05:31:30;;;;;;;0.98;0.98;;;13.60;61.50;;;;;;5017949;28;20105;-31
2022/12/09 05:33:57;;;;;;;0.98;0.98;;;13.70;61.40;;;;;;4987576;28;20535;-37
2022/12/09 05:36:23;;;;;;;1.05;1.05;;;13.70;62.20;;;;;;4988691;28;20514;-33
2022/12/09 05:38:49;;;;;;;0.80;0.80;;;13.70;61.40;;;;;;4989950;28;20046;-31
2022/12/09 05:41:15;;;;;;;0.88;0.88;;;13.70;61.40;;;;;;4987539;28;20042;-35
2022/12/09 05:43:41;;;;;;;1.02;1.02;;;13.60;61.50;;;;;;4982975;28;20054;-32
2022/12/09 05:46:06;;;;;;;0.90;0.90;;;13.70;61.50;;;;;;4989737;28;20420;-33
2022/12/09 05:48:32;;;;;;;0.85;0.85;;;13.60;61.50;;;;;;4988162;28;20180;-33
2022/12/09 05:50:59;;;;;;;0.77;0.77;;;13.60;61.70;;;;;;4989487;28;20042;-30
2022/12/09 05:53:25;;;;;;;0.95;0.95;;;13.60;61.60;;;;;;4989049;28;21190;-31
2022/12/09 05:55:50;;;;;;;1.00;1.00;;;13.60;61.70;;;;;;4986297;28;20121;-33
2022/12/09 05:58:16;;;;;;;1.08;1.08;;;13.70;61.70;;;;;;4988711;28;20428;-33
2022/12/09 06:00:41;;;;;;;0.70;0.70;;;13.60;61.50;;;;;;4989320;28;20058;-31
2022/12/09 06:03:07;;;;;;;1.20;1.20;;;13.60;61.50;;;;;;4989001;28;20070;-32
2022/12/09 06:05:33;;;;;;;1.20;1.20;;;13.70;61.60;;;;;;4985742;28;20050;-32
2022/12/09 06:07:58;;;;;;;1.20;1.20;;;13.70;61.40;;;;;;4987424;28;20192;-33
2022/12/09 06:10:24;;;;;;;0.90;0.90;;;13.70;61.40;;;;;;4985589;28;20445;-32
2022/12/09 06:12:53;;;;;;;1.10;1.10;;;13.70;61.30;;;;;;4987162;28;20065;-32
2022/12/09 06:15:19;;;;;;;0.80;0.80;;;13.70;61.50;;;;;;4987770;28;20049;-37
2022/12/09 06:17:44;;;;;;;1.17;1.10;;;13.70;61.30;;;;;;4988835;28;20061;-43
2022/12/09 06:20:10;;;;;;;0.95;0.95;;;13.70;61.40;;;;;;4987321;28;20042;-52
2022/12/09 06:22:35;;;;;;;1.17;1.08;;;13.70;61.40;;;;;;4986626;28;20467;-45
2022/12/09 06:25:01;;;;;;;1.02;1.02;;;13.60;61.60;;;;;;4988151;28;20046;-48
2022/12/09 06:27:27;;;;;;;0.93;0.93;;;13.70;61.50;;;;;;4986439;28;20515;-38
2022/12/09 06:29:52;;;;;;;0.90;0.90;;;13.60;61.50;;;;;;4987865;28;20031;-45
2022/12/09 06:32:18;;;;;;;1.00;1.00;;;13.60;61.50;;;;;;4988338;28;20046;-37
2022/12/09 06:34:43;;;;;;;1.00;1.00;;;13.60;61.60;;;;;;4988228;28;20402;-44
2022/12/09 06:37:09;;;;;;;1.17;1.17;;;13.60;61.50;;;;;;4984873;28;20108;-39
2022/12/09 06:39:34;;;;;;;1.35;1.30;;;13.60;61.50;;;;;;4985320;28;20541;-35
2022/12/09 06:42:00;;;;;;;1.30;1.30;;;13.60;61.40;;;;;;4986218;28;20042;-36
2022/12/09 06:44:26;;;;;;;1.20;1.20;;;13.60;61.40;;;;;;4987971;28;20047;-34
2022/12/09 06:46:51;;;;;;;1.20;1.20;;;13.70;61.50;;;;;;4986441;28;20416;-35
2022/12/09 06:49:17;;;;;;;1.00;1.00;;;13.60;61.40;;;;;;4629959;28;10000031;-33
2022/12/09 06:51:42;;;;;;;0.90;0.90;;;13.60;61.40;;;;;;4979544;28;20095;-50
2022/12/09 06:54:08;;;;;;;1.10;1.10;;;13.60;61.50;;;;;;4978098;28;20045;-43
2022/12/09 06:56:34;;;;;;;1.00;1.00;;;13.60;61.50;;;;;;4979757;28;20494;-49
2022/12/09 06:59:04;;;;;;;1.00;1.00;;;13.60;61.90;;;;;;4983833;28;20046;-54
2022/12/09 07:01:29;;;;;;;1.20;1.20;;;13.50;62.00;;;;;;4981661;28;20369;-46
2022/12/09 07:03:55;;;;;;;1.17;1.13;;;13.50;62.00;;;;;;4981434;28;20129;-41
2022/12/09 07:06:25;;;;;;;1.40;1.30;;;13.50;62.20;;;;;;4976120;28;20042;-46
2022/12/09 07:08:51;;;;;;;0.98;0.98;;;13.50;62.50;;;;;;4980372;28;20054;-41
2022/12/09 07:11:16;;;;;;;0.90;0.90;;;13.50;62.60;;;;;;4979666;28;20404;-44
2022/12/09 07:13:42;;;;;;;1.20;1.20;;;13.50;62.50;;;;;;4977566;28;20578;-38
2022/12/09 07:16:07;;;;;;;1.00;1.00;;;13.50;62.40;;;;;;4984545;28;20133;-39
2022/12/09 07:18:33;;;;;;;1.30;1.20;;;13.50;62.10;;;;;;4987841;28;20050;-44
2022/12/09 07:21:06;;;;;;;4.57;1.10;;;13.50;62.20;;;;;;4986650;28;20046;-34
2022/12/09 07:23:31;;;;;;;1.00;1.00;;;13.70;61.70;;;;;;4985048;28;20046;-33
2022/12/09 07:25:57;;;;;;;0.90;0.90;;;13.60;61.90;;;;;;4987169;28;20045;-31
2022/12/09 07:28:22;;;;;;;1.10;1.10;;;13.60;62.10;;;;;;4984816;28;20507;-34
2022/12/09 07:30:48;;;;;;;1.10;1.10;;;13.60;62.00;;;;;;4984436;28;20045;-34
2022/12/09 07:33:14;;;;;;;7.20;1.20;;;13.60;62.20;;;;;;4983916;28;20504;-39
2022/12/09 07:35:39;;;;;;;1.15;1.15;;;13.60;62.00;;;;;;4982705;28;20039;-36
2022/12/09 07:38:05;;;;;;;1.10;1.10;;;13.60;62.00;;;;;;4985688;28;20049;-29
2022/12/09 07:40:30;;;;;;;1.30;1.20;;;13.60;61.90;;;;;;4986805;28;20058;-33
2022/12/09 07:42:56;;;;;;;1.70;1.60;;;13.50;62.10;;;;;;4987455;28;20427;-33
2022/12/09 07:45:21;;;;;;;1.10;1.10;;;13.50;62.20;;;;;;4987436;28;20051;-29
2022/12/09 07:47:47;;;;;;;1.10;1.00;;;13.50;62.20;;;;;;4982671;28;20053;-29
2022/12/09 07:50:13;;;;;;;1.17;1.02;;;13.50;62.30;;;;;;4980322;28;20548;-33
2022/12/09 07:52:38;;;;;;;1.45;1.20;;;13.50;62.50;;;;;;4985569;28;20066;-30
2022/12/09 07:55:04;;;;;;;1.30;1.20;;;13.60;62.60;;;;;;4987154;28;20046;-31
2022/12/09 07:57:30;;;;;;;2.58;1.40;;;13.60;62.50;;;;;;4988137;28;20078;-33
2022/12/09 07:59:55;;;;;;;1.23;1.13;;;13.60;62.60;;;;;;4989153;28;20085;-31
2022/12/09 08:02:21;;;;;;;1.00;1.00;;;13.60;62.50;;;;;;4990747;28;20038;-32
2022/12/09 08:04:47;;;;;;;1.08;1.08;;;13.60;62.40;;;;;;4991045;28;20057;-33
2022/12/09 08:07:12;;;;;;;1.30;1.20;;;13.70;62.40;;;;;;4991232;28;20412;-31
2022/12/09 08:09:38;;;;;;;1.00;1.00;;;13.70;62.20;;;;;;4991553;28;20054;-30
2022/12/09 08:12:04;;;;;;;1.20;1.05;;;13.70;62.20;;;;;;4991881;28;20052;-31
2022/12/09 08:14:29;;;;;;;0.93;0.93;;;13.70;62.10;;;;;;4990850;28;20472;-36
2022/12/09 08:16:55;;;;;;;1.30;1.10;;;13.70;62.10;;;;;;4988177;28;20034;-31
2022/12/09 08:19:20;;;;;;;1.50;1.40;;;13.70;61.90;;;;;;4984038;28;20472;-31
2022/12/09 08:21:46;;;;;;;1.00;1.00;;;13.70;62.00;;;;;;4991446;28;20079;-29
2022/12/09 08:24:12;;;;;;;1.35;1.25;;;13.70;62.00;;;;;;4990364;28;20503;-29
2022/12/09 08:26:38;;;;;;;1.30;1.30;;;13.70;61.80;;;;;;4989832;28;20183;-29
2022/12/09 08:29:10;;;;;;;1.08;1.00;;;13.70;61.80;;;;;;4991040;28;20685;-36
2022/12/09 08:31:36;;;;;;;1.23;1.13;;;13.70;61.70;;;;;;4991283;28;20061;-33
2022/12/09 08:34:03;;;;;;;1.30;1.20;;;13.70;61.70;;;;;;4990397;28;20523;-30
2022/12/09 08:36:29;;;;;;;1.20;1.10;;;13.70;61.70;;;;;;4990183;28;20062;-30
2022/12/09 08:38:56;;;;;;;1.20;1.20;;;13.70;61.70;;;;;;4989809;28;20054;-32
2022/12/09 08:41:36;;;;;;;1.33;1.33;;;13.70;61.70;;;;;;4988688;28;20050;-30
2022/12/09 08:44:08;;;;;;;1.17;1.17;;;13.70;61.60;;;;;;4990986;28;20062;-29
2022/12/09 08:46:34;;;;;;;1.33;1.23;;;13.70;61.70;;;;;;4990388;28;20046;-30
2022/12/09 08:49:00;;;;;;;1.42;1.33;;;13.70;61.70;;;;;;4990722;28;20031;-29
2022/12/09 08:51:27;;;;;;;1.33;1.30;;;13.70;61.50;;;;;;4988430;28;20046;-30
2022/12/09 08:53:52;;;;;;;1.55;1.45;;;13.70;61.40;;;;;;4990681;28;20030;-32
2022/12/09 08:56:18;;;;;;;1.55;1.45;;;13.70;61.30;;;;;;4990295;28;20088;-29
2022/12/09 08:58:45;;;;;;;1.38;1.27;;;13.70;61.30;;;;;;4989788;28;20523;-36
2022/12/09 09:01:18;;;;;;;1.60;1.50;;;13.70;61.30;;;;;;4991418;28;20455;-33
2022/12/09 09:03:44;;;;;;;1.33;1.23;;;13.70;61.20;;;;;;4989987;28;20034;-32
2022/12/09 09:06:10;;;;;;;1.45;1.35;;;13.70;61.30;;;;;;4990690;28;20042;-29
2022/12/09 09:08:36;;;;;;;1.35;1.27;;;13.70;60.90;;;;;;4989769;28;20046;-30
2022/12/09 09:11:08;;;;;;;1.40;1.30;;;13.80;61.00;;;;;;4990253;28;20531;-31
2022/12/09 09:13:35;;;;;;;1.40;1.30;;;13.80;60.90;;;;;;4989375;28;20049;-30
2022/12/09 09:16:01;;;;;;;1.60;1.50;;;13.80;60.80;;;;;;4990653;28;20042;-29
2022/12/09 09:18:26;;;;;;;1.45;1.35;;;13.80;60.80;;;;;;4989716;28;20092;-35
2022/12/09 09:20:56;;;;;;;1.52;1.42;;;13.80;60.80;;;;;;4989770;28;20050;-35
2022/12/09 09:23:22;;;;;;;1.40;1.30;;;13.80;60.90;;;;;;4989898;28;20133;-32
2022/12/09 09:25:47;;;;;;;1.55;1.45;;;13.80;60.90;;;;;;4990406;28;20121;-34
2022/12/09 09:28:13;;;;;;;1.23;1.23;;;13.80;61.00;;;;;;4990292;28;20027;-30
2022/12/09 09:30:38;;;;;;;1.65;1.55;;;13.80;61.10;;;;;;4989501;28;20051;-37
2022/12/09 09:33:04;;;;;;;1.30;1.20;;;13.80;61.00;;;;;;4989787;28;20458;-30
2022/12/09 09:35:29;;;;;;;1.50;1.40;;;13.70;61.00;;;;;;4989528;28;20088;-34
2022/12/09 09:37:55;;;;;;;1.70;1.60;;;13.60;61.30;;;;;;4989828;28;20042;-32
2022/12/09 09:40:21;;;;;;;1.50;1.40;;;13.60;61.60;;;;;;4989512;28;20802;-29
2022/12/09 09:42:47;;;;;;;1.30;1.20;;;13.50;61.90;;;;;;4987950;28;20038;-32
2022/12/09 09:45:16;;;;;;;1.20;1.17;;;13.50;62.20;;;;;;4989191;28;20046;-34
2022/12/09 09:47:44;;;;;;;1.60;1.50;;;13.90;61.30;;;;;;4988369;28;20038;-34
2022/12/09 09:50:52;;;;;;;1.60;1.50;;;14.20;60.50;;;;;;4985469;28;20046;-29
2022/12/09 09:53:20;;;;;;;1.48;1.42;;;14.30;60.10;;;;;;4985529;28;20045;-30
2022/12/09 09:55:57;;;;;;;1.38;1.27;;;14.30;60.00;;;;;;4989204;28;20534;-34
2022/12/09 09:58:30;;;;;;;1.23;1.23;;;14.30;59.90;;;;;;4988543;28;20049;-32
2022/12/09 10:01:15;;;;;;;1.50;1.40;;;14.40;59.80;;;;;;4986501;28;20046;-29
2022/12/09 10:03:59;;;;;;;3.17;1.33;;;14.30;60.00;;;;;;4989632;28;20050;-29
2022/12/09 10:06:48;;;;;;;1.17;1.17;;;14.00;60.70;;;;;;4988961;28;20050;-30
2022/12/09 10:09:36;;;;;;;1.10;1.10;;;14.00;60.80;;;;;;4988563;28;20569;-34
2022/12/09 10:12:22;;;;;;;1.40;1.30;;;14.10;60.70;;;;;;4988245;28;20088;-30
2022/12/09 10:15:00;;;;;;;1.40;1.30;;;14.20;60.40;;;;;;4988949;28;20042;-34
2022/12/09 10:17:33;;;;;;;1.30;1.30;;;14.10;60.40;;;;;;4986471;28;20093;-31
2022/12/09 10:20:06;;;;;;;1.60;1.50;;;14.20;60.40;;;;;;4988445;28;20026;-35
2022/12/09 10:22:43;;;;;;;1.30;1.30;;;14.20;60.40;;;;;;4987067;28;20027;-31
2022/12/09 10:25:30;;;;;;;1.60;1.50;;;14.10;60.40;;;;;;4987550;28;20121;-32
2022/12/09 10:28:07;;;;;;;1.45;1.42;;;14.20;60.20;;;;;;4988005;28;20042;-31
2022/12/09 10:30:33;;;;;;;1.88;1.58;;;14.30;60.10;;;;;;4984508;28;20049;-36
2022/12/09 10:32:58;;;;;;;1.35;1.30;;;14.20;60.20;;;;;;4988993;28;20057;-31
2022/12/09 10:35:26;;;;;;;1.58;1.48;;;14.30;60.00;;;;;;4987380;28;20507;-34
2022/12/09 10:37:53;;;;;;;1.40;1.30;;;14.30;60.10;;;;;;4971609;28;20412;-33
2022/12/09 10:40:35;;;;;;;1.23;1.23;;;14.30;61.00;;;;;;4987368;28;20046;-30
2022/12/09 10:43:39;;;;;;;1.27;1.25;;;14.10;60.40;;;;;;4983346;28;20046;-29
2022/12/09 10:46:14;;;;;;;1.17;1.17;;;14.20;60.50;;;;;;4986414;28;20034;-31
2022/12/09 10:48:42;;;;;;;1.55;1.45;;;14.20;60.40;;;;;;4986232;28;20070;-29
2022/12/09 10:51:25;;;;;;;1.42;1.38;;;14.20;60.40;;;;;;4989359;28;20503;-30
2022/12/09 10:54:09;;;;;;;1.00;1.00;;;14.10;60.40;;;;;;4967678;28;20053;-31
2022/12/09 10:56:36;;;;;;;1.60;1.50;;;14.10;60.70;;;;;;4985993;28;20064;-32
2022/12/09 10:59:15;;;;;;;1.40;1.40;;;14.20;60.40;;;;;;4988877;28;20093;-31
2022/12/09 11:02:06;;;;;;;1.10;1.10;;;14.20;60.60;;;;;;4986402;28;20529;-32
2022/12/09 11:04:36;;;;;;;1.48;1.38;;;14.20;60.30;;;;;;4986898;28;20038;-31
2022/12/09 11:07:13;;;;;;;1.05;1.05;;;14.30;60.20;;;;;;4988111;28;20056;-31
2022/12/09 11:09:43;;;;;;;1.20;1.20;;;14.30;60.20;;;;;;4986690;28;20108;-33
2022/12/09 11:12:28;;;;;;;1.50;1.40;;;14.30;60.10;;;;;;4987686;28;20567;-30
2022/12/09 11:15:22;;;;;;;1.17;1.17;;;14.30;60.10;;;;;;4980029;28;20081;-30
2022/12/09 11:17:58;;;;;;;1.45;1.35;;;14.30;60.90;;;;;;4976582;28;20532;-31
2022/12/09 11:20:28;;;;;;;1.30;1.25;;;14.20;60.10;;;;;;4980500;28;20034;-30
2022/12/09 11:23:23;;;;;;;1.33;1.23;;;14.20;60.30;;;;;;4980072;28;20970;-34
2022/12/09 11:25:53;;;;;;;1.10;1.00;;;14.20;60.20;;;;;;4979261;28;20049;-31
2022/12/09 11:28:30;;;;;;;1.58;1.48;;;14.10;60.70;;;;;;4984405;28;20134;-31
2022/12/09 11:31:02;;;;;;;1.30;1.20;;;14.20;60.50;;;;;;4984600;28;20050;-32
2022/12/09 11:33:33;;;;;;;1.33;1.30;;;14.20;60.50;;;;;;4982521;28;20105;-30
2022/12/09 11:36:03;;;;;;;1.42;1.33;;;14.20;60.50;;;;;;4971621;28;20053;-34
2022/12/09 11:38:28;;;;;;;2.40;1.20;;;14.20;60.50;;;;;;4982093;28;20050;-33
2022/12/09 11:41:10;;;;;;;1.40;1.40;;;14.20;60.60;;;;;;4985700;28;20392;-33
2022/12/09 11:43:40;;;;;;;1.52;1.42;;;14.20;60.50;;;;;;4981325;28;20037;-29
2022/12/09 11:46:15;;;;;;;1.30;1.20;;;14.20;60.50;;;;;;4983737;28;20174;-28
2022/12/09 11:48:57;;;;;;;1.00;1.00;;;14.20;60.50;;;;;;4981787;28;20523;-32
2022/12/09 11:51:33;;;;;;;1.35;1.35;;;14.20;60.50;;;;;;4982994;28;20042;-33
2022/12/09 11:54:12;;;;;;;1.23;1.17;;;14.20;60.50;;;;;;4982442;28;20045;-30
2022/12/09 11:56:37;;;;;;;1.27;1.23;;;14.20;60.50;;;;;;4983509;28;20096;-31
2022/12/09 11:59:23;;;;;;;1.20;1.20;;;14.20;60.40;;;;;;4982586;28;20488;-35
2022/12/09 12:02:00;;;;;;;0.93;0.93;;;14.20;60.50;;;;;;4983308;28;20042;-33
2022/12/09 12:04:29;;;;;;;1.52;1.42;;;14.20;60.40;;;;;;4979020;28;20094;-32
2022/12/09 12:07:00;;;;;;;1.20;1.10;;;14.30;60.30;;;;;;4982644;28;20038;-31
2022/12/09 12:09:28;;;;;;;0.90;0.90;;;14.30;60.20;;;;;;4965346;28;20041;-33
2022/12/09 12:12:23;;;;;;;1.20;1.15;;;14.30;60.30;;;;;;4981592;28;20042;-32
2022/12/09 12:14:48;;;;;;;;;;;14.30;60.20;;;;;;4982465;28;20054;-31
2022/12/09 12:17:36;;;;;;;1.00;1.00;;;14.30;60.30;;;;;;4982190;28;20351;-29
2022/12/09 12:20:03;;;;;;;1.02;1.02;;;14.30;60.30;;;;;;4959183;28;20057;-35
2022/12/09 12:23:06;;;;;;;1.08;1.08;;;14.30;60.20;;;;;;4979162;28;20038;-30
2022/12/09 12:25:46;;;;;;;1.30;1.23;;;14.30;60.30;;;;;;4978314;28;20122;-31
2022/12/09 12:28:29;;;;;;;1.00;1.00;;;14.30;60.10;;;;;;4961306;28;20069;-30
2022/12/09 12:30:55;;;;;;;1.05;1.05;;;14.30;60.10;;;;;;4981773;28;20049;-33
2022/12/09 12:33:38;;;;;;;1.00;0.85;;;14.30;60.10;;;;;;4977846;28;20046;-30
2022/12/09 12:36:16;;;;;;;1.25;1.20;;;14.30;60.10;;;;;;4982736;28;20053;-32
2022/12/09 12:38:48;;;;;;;1.02;1.00;;;14.30;60.10;;;;;;4964654;28;20057;-29
2022/12/09 12:42:01;;;;;;;1.00;1.00;;;14.30;60.10;;;;;;4978534;28;20129;-32
2022/12/09 12:47:45;;;;;;;1.20;1.20;;;14.30;60.10;;;;;;4897937;29;20063;-31
2022/12/09 12:50:32;;;;;;;1.25;1.20;;;14.30;60.20;;;;;;4894789;29;20048;-31
2022/12/09 12:52:58;;;;;;;0.80;0.80;;;14.40;60.40;;;;;;4907909;29;20087;-17
2022/12/09 12:55:55;;;;;;;1.23;1.15;;;14.40;60.30;;;;;;4921739;29;20047;-17
2022/12/09 12:58:39;;;;;;;0.90;0.90;;;14.40;60.30;;;;;;4911119;29;20055;-17
2022/12/09 13:01:30;;;;;;;2.20;0.98;;;14.40;60.50;;;;;;4920661;29;20107;-17
2022/12/09 13:04:16;;;;;;;1.60;1.50;;;14.50;60.60;;;;;;4927506;29;20048;-17
2022/12/09 13:06:44;;;;;;;1.67;1.58;;;14.40;60.90;;;;;;4924706;29;20163;-17